createdAt,value
2023-04-20T00:01:57.755Z,55.94
2023-04-20T00:04:24.679Z,56.05
2023-04-20T00:06:52.071Z,56.23
2023-04-20T00:09:19.294Z,55.88
2023-04-20T00:11:46.223Z,55.98
2023-04-20T00:14:13.026Z,55.83
2023-04-20T00:16:39.942Z,55.54
2023-04-20T00:19:08.298Z,55.63
2023-04-20T00:21:35.779Z,55.69
2023-04-20T00:24:02.658Z,55.59
2023-04-20T00:26:30.127Z,55.58
2023-04-20T00:28:57.996Z,55.49
2023-04-20T00:31:25.025Z,55.48
2023-04-20T00:33:51.884Z,55.57
2023-04-20T00:36:18.740Z,55.51
2023-04-20T00:38:45.769Z,55.28
2023-04-20T00:41:12.661Z,55.15
2023-04-20T00:43:49.834Z,55.09
2023-04-20T00:46:16.819Z,55.46
2023-04-20T00:48:44.205Z,55.34
2023-04-20T00:51:11.419Z,55.57
2023-04-20T00:53:38.335Z,55.56
2023-04-20T00:56:07.009Z,55.60
2023-04-20T00:58:34.280Z,55.62
2023-04-20T01:01:01.089Z,55.64
2023-04-20T01:03:28.358Z,55.70
2023-04-20T01:05:55.390Z,55.84
2023-04-20T01:08:26.546Z,55.58
2023-04-20T01:10:55.463Z,55.79
2023-04-20T01:13:23.401Z,55.75
2023-04-20T01:15:50.277Z,55.80
2023-04-20T01:18:20.022Z,55.80
2023-04-20T01:20:49.351Z,55.80
2023-04-20T01:23:16.264Z,55.75
2023-04-20T01:25:44.498Z,55.74
2023-04-20T01:28:14.392Z,55.98
2023-04-20T01:30:41.401Z,55.97
2023-04-20T01:33:08.174Z,55.99
2023-04-20T01:35:35.018Z,55.88
2023-04-20T01:38:01.944Z,56.01
2023-04-20T01:40:28.796Z,55.80
2023-04-20T01:42:55.505Z,55.91
2023-04-20T01:45:22.722Z,55.90
2023-04-20T01:47:51.054Z,55.82
2023-04-20T01:50:18.008Z,55.99
2023-04-20T01:52:44.797Z,56.05
2023-04-20T01:55:11.840Z,55.83
2023-04-20T01:57:38.582Z,55.79
2023-04-20T02:00:08.972Z,55.69
2023-04-20T02:02:41.189Z,55.85
2023-04-20T02:05:08.651Z,55.84
2023-04-20T02:07:35.744Z,55.99
2023-04-20T02:10:03.822Z,55.99
2023-04-20T02:12:30.692Z,56.05
2023-04-20T02:14:58.039Z,55.79
2023-04-20T02:17:25.054Z,55.92
2023-04-20T02:19:51.851Z,56.10
2023-04-20T02:22:18.656Z,56.04
2023-04-20T02:24:45.662Z,56.13
2023-04-20T02:27:14.273Z,56.09
2023-04-20T02:29:41.560Z,56.30
2023-04-20T02:32:08.419Z,56.31
2023-04-20T02:34:35.254Z,56.40
2023-04-20T02:37:01.994Z,56.55
2023-04-20T02:39:28.730Z,56.33
2023-04-20T02:41:55.971Z,56.28
2023-04-20T02:44:23.307Z,56.25
2023-04-20T02:46:50.344Z,56.18
2023-04-20T02:49:18.030Z,56.30
2023-04-20T02:51:45.562Z,56.29
2023-04-20T02:54:12.539Z,56.18
2023-04-20T02:56:39.689Z,56.30
2023-04-20T02:59:09.469Z,56.48
2023-04-20T03:01:56.624Z,56.41
2023-04-20T03:04:26.206Z,56.47
2023-04-20T03:07:19.490Z,56.15
2023-04-20T03:09:46.866Z,56.16
2023-04-20T03:12:13.657Z,55.91
2023-04-20T03:14:48.859Z,56.05
2023-04-20T03:17:20.796Z,55.96
2023-04-20T03:19:47.601Z,56.18
2023-04-20T03:22:14.474Z,56.19
2023-04-20T03:24:42.725Z,56.07
2023-04-20T03:27:18.969Z,56.20
2023-04-20T03:30:12.663Z,56.54
2023-04-20T03:32:39.959Z,56.41
2023-04-20T03:35:07.351Z,56.43
2023-04-20T03:37:35.033Z,56.33
2023-04-20T03:40:01.964Z,56.18
2023-04-20T03:42:30.256Z,56.22
2023-04-20T03:44:57.128Z,56.09
2023-04-20T03:47:24.153Z,56.13
2023-04-20T03:49:51.078Z,56.31
2023-04-20T03:52:17.823Z,56.17
2023-04-20T03:54:44.634Z,56.18
2023-04-20T03:57:13.638Z,56.04
2023-04-20T03:59:40.503Z,56.06
2023-04-20T04:02:07.843Z,56.19
2023-04-20T04:04:35.265Z,56.24
2023-04-20T04:07:02.290Z,56.05
2023-04-20T04:09:29.279Z,56.07
2023-04-20T04:11:57.459Z,56.12
2023-04-20T04:14:24.651Z,56.08
2023-04-20T04:16:52.347Z,56.17
2023-04-20T04:19:19.701Z,56.21
2023-04-20T04:21:46.763Z,55.94
2023-04-20T04:24:14.610Z,56.11
2023-04-20T04:26:50.811Z,55.95
2023-04-20T04:29:20.193Z,55.90
2023-04-20T04:31:47.534Z,56.05
2023-04-20T04:34:18.499Z,56.11
2023-04-20T04:36:49.237Z,56.06
2023-04-20T04:39:19.020Z,56.01
2023-04-20T04:41:53.100Z,56.02
2023-04-20T04:44:29.766Z,55.95
2023-04-20T04:46:56.576Z,55.70
2023-04-20T04:49:26.813Z,55.88
2023-04-20T04:51:53.622Z,55.81
2023-04-20T04:54:20.409Z,55.79
2023-04-20T04:56:47.199Z,55.90
2023-04-20T04:59:14.067Z,55.93
2023-04-20T05:01:41.021Z,55.78
2023-04-20T05:04:09.241Z,55.64
2023-04-20T05:06:36.453Z,55.63
2023-04-20T05:09:03.414Z,55.42
2023-04-20T05:11:31.765Z,55.49
2023-04-20T05:13:58.637Z,55.41
2023-04-20T05:16:25.684Z,55.43
2023-04-20T05:18:52.407Z,55.35
2023-04-20T05:21:19.157Z,55.53
2023-04-20T05:23:45.887Z,55.28
2023-04-20T05:26:12.718Z,55.34
2023-04-20T05:28:39.507Z,55.00
2023-04-20T05:31:08.082Z,55.10
2023-04-20T05:33:34.891Z,54.94
2023-04-20T05:36:01.801Z,55.07
2023-04-20T05:38:28.523Z,55.34
2023-04-20T05:40:56.186Z,55.24
2023-04-20T05:43:22.968Z,55.41
2023-04-20T05:45:49.874Z,55.38
2023-04-20T05:48:16.652Z,54.89
2023-04-20T05:50:43.510Z,54.91
2023-04-20T05:53:10.218Z,54.95
2023-04-20T05:55:36.956Z,54.78
2023-04-20T05:58:04.065Z,54.82
2023-04-20T06:00:30.902Z,54.86
2023-04-20T06:02:57.776Z,54.88
2023-04-20T06:05:24.766Z,54.91
2023-04-20T06:07:51.688Z,55.02
2023-04-20T06:10:18.564Z,55.04
2023-04-20T06:12:45.537Z,55.02
2023-04-20T06:15:12.319Z,55.36
2023-04-20T06:17:41.232Z,55.36
2023-04-20T06:20:11.845Z,55.54
2023-04-20T06:22:44.490Z,55.43
2023-04-20T06:25:11.819Z,55.36
2023-04-20T06:27:38.648Z,55.25
2023-04-20T06:30:06.485Z,55.34
2023-04-20T06:32:33.677Z,55.41
2023-04-20T06:35:00.507Z,55.33
2023-04-20T06:37:27.969Z,55.41
2023-04-20T06:39:55.091Z,55.42
2023-04-20T06:42:22.630Z,55.31
2023-04-20T06:44:50.207Z,55.17
2023-04-20T06:47:17.112Z,55.28
2023-04-20T06:49:43.896Z,55.16
2023-04-20T06:52:10.727Z,55.12
2023-04-20T06:54:37.459Z,55.31
2023-04-20T06:57:04.418Z,55.71
2023-04-20T06:59:31.192Z,55.80
2023-04-20T07:01:58.037Z,56.26
2023-04-20T07:04:24.911Z,56.20
2023-04-20T07:06:53.919Z,56.31
2023-04-20T07:09:21.206Z,56.33
2023-04-20T07:11:48.017Z,56.38
2023-04-20T07:14:14.912Z,56.46
2023-04-20T07:16:41.829Z,56.55
2023-04-20T07:19:08.805Z,56.67
2023-04-20T07:21:36.271Z,56.77
2023-04-20T07:24:03.083Z,56.73
2023-04-20T07:26:29.856Z,56.71
2023-04-20T07:28:56.574Z,56.63
2023-04-20T07:31:23.326Z,56.54
2023-04-20T07:33:50.269Z,56.41
2023-04-20T07:36:17.050Z,56.35
2023-04-20T07:38:43.827Z,56.18
2023-04-20T07:41:11.173Z,56.10
2023-04-20T07:43:39.215Z,55.84
2023-04-20T07:46:06.141Z,55.40
2023-04-20T07:48:36.295Z,55.19
2023-04-20T07:51:03.440Z,55.29
2023-04-20T07:53:30.250Z,55.00
2023-04-20T07:55:57.078Z,54.45
2023-04-20T07:58:23.810Z,54.18
2023-04-20T08:00:50.606Z,53.19
2023-04-20T08:03:17.585Z,52.86
2023-04-20T08:05:44.650Z,52.39
2023-04-20T08:08:11.477Z,51.22
2023-04-20T08:10:38.597Z,50.86
2023-04-20T08:13:05.916Z,50.69
2023-04-20T08:15:32.720Z,50.60
2023-04-20T08:17:59.546Z,50.34
2023-04-20T08:20:26.395Z,49.77
2023-04-20T08:22:53.400Z,49.78
2023-04-20T08:25:20.726Z,50.01
2023-04-20T08:27:47.675Z,49.72
2023-04-20T08:30:14.609Z,49.92
2023-04-20T08:32:41.514Z,50.01
2023-04-20T08:35:08.835Z,50.18
2023-04-20T08:37:37.564Z,50.18
2023-04-20T08:40:05.771Z,49.94
2023-04-20T08:42:32.625Z,50.11
2023-04-20T08:44:59.698Z,49.91
2023-04-20T08:47:28.686Z,49.97
2023-04-20T08:49:56.809Z,49.68
2023-04-20T08:52:23.612Z,49.57
2023-04-20T08:54:56.798Z,49.59
2023-04-20T08:57:25.960Z,49.47
2023-04-20T08:59:53.316Z,49.60
2023-04-20T09:02:20.372Z,49.63
2023-04-20T09:04:49.618Z,49.76
2023-04-20T09:07:21.537Z,49.63
2023-04-20T09:09:58.628Z,49.77
2023-04-20T09:12:26.076Z,49.48
2023-04-20T09:14:53.635Z,49.68
2023-04-20T09:17:36.257Z,49.67
2023-04-20T09:20:05.269Z,49.47
2023-04-20T09:22:37.326Z,49.53
2023-04-20T09:25:17.739Z,49.87
2023-04-20T09:28:03.628Z,49.92
2023-04-20T09:30:45.303Z,49.88
2023-04-20T09:33:14.483Z,49.22
2023-04-20T09:35:42.664Z,48.94
2023-04-20T09:38:10.666Z,49.15
2023-04-20T09:40:37.633Z,49.26
2023-04-20T09:43:15.370Z,49.22
2023-04-20T09:45:43.186Z,48.65
2023-04-20T09:48:10.835Z,48.31
2023-04-20T09:50:48.501Z,47.68
2023-04-20T09:53:17.616Z,47.27
2023-04-20T09:55:52.089Z,47.45
2023-04-20T09:58:23.868Z,47.48
2023-04-20T10:00:51.144Z,46.90
2023-04-20T10:03:19.637Z,46.70
2023-04-20T10:05:46.832Z,46.45
2023-04-20T10:08:13.777Z,46.37
2023-04-20T10:10:50.642Z,46.42
2023-04-20T10:13:23.311Z,47.02
2023-04-20T10:15:50.167Z,46.57
2023-04-20T10:18:23.457Z,46.28
2023-04-20T10:20:52.199Z,45.90
2023-04-20T10:23:20.099Z,45.82
2023-04-20T10:26:00.888Z,45.22
2023-04-20T10:28:41.774Z,44.71
2023-04-20T10:31:13.062Z,44.76
2023-04-20T10:33:56.288Z,44.67
2023-04-20T10:36:31.415Z,44.41
2023-04-20T10:38:59.103Z,44.41
2023-04-20T10:41:26.063Z,44.52
2023-04-20T10:43:52.928Z,44.08
2023-04-20T10:46:24.299Z,44.25
2023-04-20T10:48:58.831Z,44.50
2023-04-20T10:51:26.229Z,44.46
2023-04-20T10:54:08.775Z,44.42
2023-04-20T10:56:43.868Z,44.02
2023-04-20T10:59:15.646Z,44.09
2023-04-20T11:01:43.737Z,44.07
2023-04-20T11:04:12.095Z,44.49
2023-04-20T11:06:40.754Z,44.01
2023-04-20T11:09:20.118Z,43.34
2023-04-20T11:11:58.032Z,42.80
2023-04-20T11:14:24.877Z,42.60
2023-04-20T11:16:53.382Z,42.87
2023-04-20T11:19:31.207Z,42.84
2023-04-20T11:21:58.136Z,43.19
2023-04-20T11:24:27.879Z,42.82
2023-04-20T11:26:56.256Z,42.70
2023-04-20T11:29:33.645Z,42.02
2023-04-20T11:32:08.410Z,41.62
2023-04-20T11:34:37.317Z,41.54
2023-04-20T11:37:05.333Z,41.30
2023-04-20T11:39:33.565Z,40.94
2023-04-20T11:42:00.628Z,40.47
2023-04-20T11:44:27.558Z,40.66
2023-04-20T11:46:57.236Z,40.60
2023-04-20T11:49:25.288Z,40.54
2023-04-20T11:51:52.265Z,39.83
2023-04-20T11:54:19.402Z,40.04
2023-04-20T11:56:46.680Z,40.32
2023-04-20T11:59:20.121Z,40.57
2023-04-20T12:01:48.001Z,40.99
2023-04-20T12:04:16.434Z,40.95
2023-04-20T12:06:44.185Z,40.90
2023-04-20T12:09:11.035Z,40.83
2023-04-20T12:11:37.805Z,40.79
2023-04-20T12:14:05.183Z,41.14
2023-04-20T12:16:32.276Z,41.14
2023-04-20T12:18:59.526Z,41.08
2023-04-20T12:21:27.426Z,41.27
2023-04-20T12:23:54.237Z,41.60
2023-04-20T12:26:22.614Z,41.69
2023-04-20T12:28:52.451Z,41.91
2023-04-20T12:31:19.676Z,42.09
2023-04-20T12:33:46.507Z,42.46
2023-04-20T12:36:13.271Z,42.49
2023-04-20T12:38:40.052Z,42.65
2023-04-20T12:41:06.950Z,42.50
2023-04-20T12:43:33.775Z,42.49
2023-04-20T12:46:00.531Z,42.55
2023-04-20T12:48:27.281Z,42.75
2023-04-20T12:50:54.054Z,42.79
2023-04-20T12:53:20.918Z,42.94
2023-04-20T12:55:49.519Z,42.99
2023-04-20T12:58:17.975Z,42.92
2023-04-20T13:00:44.967Z,42.74
2023-04-20T13:03:11.856Z,42.70
2023-04-20T13:05:38.751Z,42.47
2023-04-20T13:08:06.032Z,42.07
2023-04-20T13:10:32.926Z,42.38
2023-04-20T13:12:59.941Z,42.35
2023-04-20T13:15:38.138Z,42.37
2023-04-20T13:18:06.210Z,42.48
2023-04-20T13:20:33.092Z,42.58
2023-04-20T13:23:01.488Z,42.59
2023-04-20T13:25:30.146Z,42.36
2023-04-20T13:27:57.698Z,42.43
2023-04-20T13:30:24.984Z,42.30
2023-04-20T13:32:52.278Z,42.20
2023-04-20T13:35:38.494Z,42.29
2023-04-20T13:38:05.497Z,42.38
2023-04-20T13:40:32.460Z,42.71
2023-04-20T13:42:59.273Z,42.88
2023-04-20T13:45:26.394Z,43.04
2023-04-20T13:47:53.427Z,42.99
2023-04-20T13:50:20.225Z,43.06
2023-04-20T13:52:47.226Z,42.88
2023-04-20T13:55:14.579Z,42.92
2023-04-20T13:57:41.372Z,43.10
2023-04-20T14:00:08.775Z,43.31
2023-04-20T14:02:35.737Z,43.35
2023-04-20T14:05:04.152Z,43.59
2023-04-20T14:07:31.093Z,44.07
2023-04-20T14:09:59.970Z,44.42
2023-04-20T14:12:27.359Z,44.40
2023-04-20T14:14:57.821Z,44.18
2023-04-20T14:17:24.859Z,44.51
2023-04-20T14:19:51.704Z,44.49
2023-04-20T14:22:18.421Z,44.67
2023-04-20T14:24:48.784Z,44.95
2023-04-20T14:27:15.612Z,45.47
2023-04-20T14:29:42.373Z,45.63
2023-04-20T14:32:09.159Z,45.58
2023-04-20T14:34:36.112Z,45.78
2023-04-20T14:37:02.949Z,45.88
2023-04-20T14:39:29.782Z,45.64
2023-04-20T14:41:56.588Z,45.84
2023-04-20T14:44:23.385Z,46.28
2023-04-20T14:46:50.459Z,46.55
2023-04-20T14:49:17.284Z,46.20
2023-04-20T14:51:44.263Z,45.80
2023-04-20T14:54:11.188Z,45.61
2023-04-20T14:56:38.001Z,45.61
2023-04-20T14:59:04.920Z,45.55
2023-04-20T15:01:31.756Z,45.42
2023-04-20T15:03:58.723Z,45.39
2023-04-20T15:06:25.664Z,45.57
2023-04-20T15:08:56.534Z,45.63
2023-04-20T15:11:23.503Z,45.53
2023-04-20T15:13:52.092Z,45.87
2023-04-20T15:16:19.064Z,45.99
2023-04-20T15:18:46.563Z,46.02
2023-04-20T15:21:13.313Z,46.30
2023-04-20T15:23:40.206Z,46.42
2023-04-20T15:26:08.380Z,46.40
2023-04-20T15:28:35.220Z,46.15
2023-04-20T15:31:02.064Z,46.34
2023-04-20T15:33:28.862Z,46.32
2023-04-20T15:35:55.645Z,46.11
2023-04-20T15:38:22.501Z,46.25
2023-04-20T15:40:51.300Z,46.38
2023-04-20T15:43:18.082Z,46.38
2023-04-20T15:45:45.024Z,46.48
2023-04-20T15:48:11.881Z,46.49
2023-04-20T15:50:38.723Z,46.54
2023-04-20T15:53:05.544Z,46.53
2023-04-20T15:55:34.699Z,46.41
2023-04-20T15:58:01.609Z,46.42
2023-04-20T16:00:28.631Z,46.38
2023-04-20T16:02:55.653Z,46.28
2023-04-20T16:05:23.080Z,46.18
2023-04-20T16:07:49.949Z,46.36
2023-04-20T16:10:16.767Z,46.04
2023-04-20T16:12:43.539Z,45.75
2023-04-20T16:15:10.395Z,46.08
2023-04-20T16:17:37.706Z,46.47
2023-04-20T16:20:08.373Z,46.58
2023-04-20T16:22:35.391Z,46.47
2023-04-20T16:25:02.432Z,46.53
2023-04-20T16:27:29.528Z,46.50
2023-04-20T16:29:58.859Z,46.97
2023-04-20T16:32:25.959Z,47.04
2023-04-20T16:34:52.962Z,47.18
2023-04-20T16:37:19.824Z,47.38
2023-04-20T16:39:46.635Z,47.30
2023-04-20T16:42:13.541Z,47.27
2023-04-20T16:44:41.860Z,47.33
2023-04-20T16:47:11.088Z,47.43
2023-04-20T16:49:38.181Z,47.16
2023-04-20T16:52:05.030Z,47.10
2023-04-20T16:54:31.807Z,47.10
2023-04-20T16:56:58.684Z,47.00
2023-04-20T16:59:25.659Z,47.08
2023-04-20T17:01:54.519Z,47.18
2023-04-20T17:04:21.830Z,47.38
2023-04-20T17:06:49.086Z,47.39
2023-04-20T17:09:15.988Z,47.68
2023-04-20T17:11:43.950Z,47.61
2023-04-20T17:14:12.393Z,47.59
2023-04-20T17:16:39.347Z,47.60
2023-04-20T17:19:06.584Z,47.72
2023-04-20T17:21:39.961Z,47.86
2023-04-20T17:27:30.730Z,48.00
